Time;durP1;ratioP1;P1;durP2;ratioP2;P2;SDS_P1;SDS_P2;PMS_P1;PMS_P2;Temp;Humidity;BMP_temperature;BMP_pressure;BME280_temperature;BME280_humidity;BME280_pressure;Samples;Min_cycle;Max_cycle;Signal;HPM_P1;HPM_P2
2022/01/16 00:06:31;;;;;;;29.83;12.25;;;2.80;99.90;;;;;;10346022;28;20147;-61
2022/01/16 00:11:33;;;;;;;28.90;11.65;;;2.90;99.90;;;;;;10340514;28;20095;-60
2022/01/16 00:16:35;;;;;;;26.83;11.63;;;2.90;99.90;;;;;;10346344;28;20053;-61
2022/01/16 00:21:40;;;;;;;26.98;11.07;;;2.90;99.90;;;;;;10344209;28;20378;-62
2022/01/16 00:26:42;;;;;;;28.15;10.77;;;2.80;99.90;;;;;;10344338;28;20083;-61
2022/01/16 00:31:44;;;;;;;23.02;9.70;;;2.70;99.90;;;;;;10343616;28;20077;-62
2022/01/16 00:36:46;;;;;;;26.77;10.48;;;2.60;99.90;;;;;;10338283;28;20092;-61
2022/01/16 00:41:48;;;;;;;27.42;10.88;;;2.60;99.90;;;;;;10337112;28;20116;-61
2022/01/16 00:46:49;;;;;;;23.63;9.98;;;2.70;99.90;;;;;;10349316;28;20111;-61
2022/01/16 00:51:51;;;;;;;27.13;11.18;;;2.60;99.90;;;;;;10337581;28;20046;-61
2022/01/16 00:56:53;;;;;;;23.85;9.52;;;2.80;99.90;;;;;;10342208;28;20081;-61
2022/01/16 01:01:54;;;;;;;21.98;8.77;;;2.70;99.90;;;;;;10337413;28;20073;-61
2022/01/16 01:06:56;;;;;;;30.13;10.40;;;2.70;99.90;;;;;;10345491;28;20046;-62
2022/01/16 01:11:58;;;;;;;28.52;10.68;;;2.60;99.90;;;;;;10340589;28;20080;-61
2022/01/16 01:17:03;;;;;;;28.10;10.82;;;2.70;99.90;;;;;;10344823;28;20057;-61
2022/01/16 01:22:06;;;;;;;30.98;10.52;;;2.50;99.90;;;;;;10338539;28;20130;-61
2022/01/16 01:32:09;;;;;;;28.75;10.57;;;2.50;99.90;;;;;;10355345;28;20148;-61
2022/01/16 01:37:10;;;;;;;23.05;9.82;;;2.40;99.90;;;;;;10362484;28;20488;-61
2022/01/16 01:42:12;;;;;;;27.80;10.85;;;2.30;99.90;;;;;;10351942;28;20560;-60
2022/01/16 01:52:35;;;;;;;33.90;11.80;;;2.40;99.90;;;;;;10346339;28;20058;-62
2022/01/16 01:57:37;;;;;;;29.65;10.30;;;2.30;99.90;;;;;;10354244;28;20054;-61
2022/01/16 02:02:57;;;;;;;34.42;9.93;;;2.30;99.90;;;;;;10355529;28;20042;-61
2022/01/16 02:07:59;;;;;;;29.10;10.93;;;2.30;99.90;;;;;;10354270;28;20062;-61
2022/01/16 02:13:05;;;;;;;33.55;8.60;;;2.30;99.90;;;;;;10357239;28;20124;-61
2022/01/16 02:29:14;;;;;;;25.90;8.40;;;2.10;99.90;;;;;;10353944;28;20131;-62
2022/01/16 02:39:35;;;;;;;26.13;7.15;;;2.00;99.90;;;;;;10344685;28;20104;-61
2022/01/16 02:44:45;;;;;;;13.00;4.70;;;1.90;99.90;;;;;;10345609;28;20132;-61
2022/01/16 02:49:48;;;;;;;17.00;4.95;;;1.90;99.90;;;;;;10351606;28;20083;-61
2022/01/16 02:54:53;;;;;;;16.92;5.20;;;1.90;99.90;;;;;;10343912;28;20123;-62
2022/01/16 02:59:56;;;;;;;15.30;5.03;;;1.90;99.90;;;;;;10352358;28;20077;-61
2022/01/16 03:04:57;;;;;;;15.80;5.25;;;1.90;99.90;;;;;;10343901;28;20065;-61
2022/01/16 03:15:27;;;;;;;28.60;8.20;;;1.80;99.90;;;;;;10342094;28;20049;-61
2022/01/16 03:25:52;;;;;;;38.85;9.75;;;1.90;99.90;;;;;;10343094;28;20481;-61
2022/01/16 03:30:55;;;;;;;42.53;9.82;;;1.90;99.90;;;;;;10342519;28;20085;-60
2022/01/16 03:35:57;;;;;;;45.65;11.98;;;1.90;99.90;;;;;;10347736;28;20998;-62
2022/01/16 03:41:00;;;;;;;40.15;10.70;;;1.80;99.90;;;;;;10348073;28;20053;-61
2022/01/16 03:46:03;;;;;;;34.60;10.75;;;1.90;99.90;;;;;;10344480;28;20038;-62
2022/01/16 03:51:05;;;;;;;34.92;9.35;;;1.90;99.90;;;;;;10348429;28;20511;-63
2022/01/16 03:56:07;;;;;;;41.92;10.73;;;1.80;99.90;;;;;;10344469;28;20412;-61
2022/01/16 04:01:08;;;;;;;29.77;8.65;;;1.80;99.90;;;;;;10342946;28;20078;-61
2022/01/16 04:06:11;;;;;;;35.95;8.55;;;1.80;99.90;;;;;;10342272;28;20042;-61
2022/01/16 04:11:13;;;;;;;27.83;9.10;;;1.80;99.90;;;;;;10348860;28;20445;-61
2022/01/16 04:16:15;;;;;;;38.05;9.43;;;1.80;99.90;;;;;;10342739;28;20073;-61
2022/01/16 04:21:22;;;;;;;25.75;7.50;;;1.80;99.90;;;;;;10346559;28;20141;-62
2022/01/16 04:26:25;;;;;;;32.97;8.77;;;1.80;99.90;;;;;;10342516;28;20046;-61
2022/01/16 04:31:27;;;;;;;31.23;7.32;;;1.80;99.90;;;;;;10358344;28;20118;-61
2022/01/16 04:36:28;;;;;;;22.40;7.65;;;1.70;99.90;;;;;;10340033;28;20049;-61
2022/01/16 04:46:53;;;;;;;22.00;7.15;;;1.70;99.90;;;;;;10342995;28;20080;-61
2022/01/16 04:51:55;;;;;;;20.27;7.05;;;1.60;99.90;;;;;;10347528;28;20510;-61
2022/01/16 04:56:57;;;;;;;19.95;6.43;;;1.60;99.90;;;;;;10339291;28;20042;-61
2022/01/16 05:01:59;;;;;;;24.27;6.88;;;1.60;99.90;;;;;;10339364;28;20050;-61
2022/01/16 05:07:00;;;;;;;25.33;6.90;;;1.60;99.90;;;;;;10337914;28;20052;-61
2022/01/16 05:12:10;;;;;;;23.83;6.70;;;1.60;99.90;;;;;;10341493;28;20100;-61
2022/01/16 05:17:11;;;;;;;19.50;6.47;;;1.50;99.90;;;;;;10351532;28;20065;-62
2022/01/16 05:22:13;;;;;;;22.65;7.85;;;1.50;99.90;;;;;;10341459;28;20128;-61
2022/01/16 05:27:15;;;;;;;31.17;7.18;;;1.50;99.90;;;;;;10345762;28;20049;-62
2022/01/16 05:32:16;;;;;;;26.63;7.32;;;1.60;99.90;;;;;;10335731;28;20145;-61
2022/01/16 05:37:18;;;;;;;17.80;5.82;;;1.60;99.90;;;;;;10338464;28;20038;-61
2022/01/16 05:42:20;;;;;;;17.77;6.30;;;1.60;99.90;;;;;;10344267;28;20046;-61
2022/01/16 05:47:22;;;;;;;20.15;6.97;;;1.50;99.90;;;;;;10343001;28;20050;-61
2022/01/16 05:52:23;;;;;;;20.25;8.20;;;1.50;99.90;;;;;;10344734;28;20090;-61
2022/01/16 05:57:25;;;;;;;18.98;7.93;;;1.40;99.90;;;;;;10339744;28;20074;-62
2022/01/16 06:02:27;;;;;;;22.05;6.85;;;1.30;99.90;;;;;;10341440;28;20132;-61
2022/01/16 06:07:28;;;;;;;15.32;5.50;;;1.30;99.90;;;;;;10340729;28;20100;-61
2022/01/16 06:12:30;;;;;;;11.75;4.97;;;1.30;99.90;;;;;;10346678;28;20057;-61
2022/01/16 06:17:31;;;;;;;17.08;6.13;;;1.30;99.90;;;;;;10346713;28;20050;-61
2022/01/16 06:22:33;;;;;;;19.85;5.28;;;1.30;99.90;;;;;;10346361;28;20069;-61
2022/01/16 06:27:38;;;;;;;15.73;5.43;;;1.20;99.90;;;;;;10343284;28;20822;-62
2022/01/16 06:32:40;;;;;;;17.10;5.72;;;1.30;99.90;;;;;;10346742;28;20120;-61
2022/01/16 06:37:43;;;;;;;16.17;5.63;;;1.30;99.90;;;;;;10352087;28;20552;-61
2022/01/16 06:42:46;;;;;;;18.30;5.90;;;1.30;99.90;;;;;;10347802;28;20065;-62
2022/01/16 06:47:47;;;;;;;15.82;5.18;;;1.30;99.90;;;;;;10351664;28;20054;-62
2022/01/16 06:52:49;;;;;;;21.38;6.45;;;1.30;99.90;;;;;;10347264;28;20508;-61
2022/01/16 06:57:50;;;;;;;17.33;5.95;;;1.30;99.90;;;;;;10348716;28;20124;-62
2022/01/16 07:02:52;;;;;;;22.88;5.47;;;1.40;99.90;;;;;;10341409;28;20054;-61
2022/01/16 07:07:54;;;;;;;16.45;5.32;;;1.40;99.90;;;;;;10347256;28;20077;-62
2022/01/16 07:12:56;;;;;;;15.77;4.80;;;1.40;99.90;;;;;;10341765;28;20086;-61
2022/01/16 07:17:58;;;;;;;17.70;5.95;;;1.40;99.90;;;;;;10344659;28;20046;-64
2022/01/16 07:22:59;;;;;;;12.70;4.32;;;1.40;99.90;;;;;;10345302;28;20042;-64
2022/01/16 07:28:01;;;;;;;12.75;4.90;;;1.40;99.90;;;;;;10346764;28;20069;-64
2022/01/16 07:33:04;;;;;;;14.55;5.20;;;1.40;99.90;;;;;;10346373;28;20062;-64
2022/01/16 07:38:07;;;;;;;12.75;4.43;;;1.60;99.90;;;;;;10343360;28;20049;-64
2022/01/16 07:43:09;;;;;;;15.57;5.22;;;1.60;99.90;;;;;;10340156;28;20049;-64
2022/01/16 07:48:11;;;;;;;14.45;5.63;;;1.60;99.90;;;;;;10342207;28;20051;-64
2022/01/16 07:53:12;;;;;;;14.18;5.22;;;1.70;99.90;;;;;;10339024;28;20074;-64
2022/01/16 07:58:14;;;;;;;18.45;6.13;;;1.70;99.90;;;;;;10347332;28;20108;-64
2022/01/16 08:03:16;;;;;;;12.10;5.22;;;1.70;99.90;;;;;;10346584;28;20089;-63
2022/01/16 08:08:17;;;;;;;10.70;3.95;;;1.70;99.90;;;;;;10343443;28;20073;-64
2022/01/16 08:13:19;;;;;;;12.27;5.60;;;1.70;99.90;;;;;;10344634;28;20566;-63
2022/01/16 08:18:21;;;;;;;10.77;5.50;;;1.70;99.90;;;;;;10343592;28;20060;-63
2022/01/16 08:23:24;;;;;;;15.30;5.43;;;1.70;99.90;;;;;;10349494;28;20651;-63
2022/01/16 08:28:26;;;;;;;11.00;5.32;;;1.70;99.90;;;;;;10340327;28;20046;-64
2022/01/16 08:33:28;;;;;;;10.88;5.00;;;1.60;99.90;;;;;;10337164;28;20104;-63
2022/01/16 08:38:30;;;;;;;11.40;4.80;;;1.60;99.90;;;;;;10343060;28;20116;-63
2022/01/16 08:43:33;;;;;;;13.23;5.90;;;1.50;99.90;;;;;;10338358;28;20053;-64
2022/01/16 08:48:34;;;;;;;14.52;5.80;;;1.60;99.90;;;;;;10340775;28;20054;-64
2022/01/16 08:53:37;;;;;;;12.48;5.38;;;1.50;99.90;;;;;;10344163;28;20448;-63
2022/01/16 08:58:43;;;;;;;20.80;7.65;;;1.60;99.90;;;;;;10339112;28;20049;-63
2022/01/16 09:03:47;;;;;;;19.17;7.60;;;1.60;99.90;;;;;;10337466;28;20104;-63
2022/01/16 09:08:48;;;;;;;19.98;7.68;;;1.70;99.90;;;;;;10337401;28;20045;-64
2022/01/16 09:13:50;;;;;;;18.08;7.65;;;1.70;99.90;;;;;;10334525;28;20069;-63
2022/01/16 09:18:52;;;;;;;21.02;7.25;;;1.70;99.90;;;;;;10339441;28;20119;-63
2022/01/16 09:23:53;;;;;;;24.50;9.63;;;1.80;99.90;;;;;;10337292;28;20428;-64
2022/01/16 09:28:55;;;;;;;29.70;9.52;;;1.80;99.90;;;;;;10341139;28;20121;-63
2022/01/16 09:33:59;;;;;;;26.20;9.73;;;1.80;99.90;;;;;;10338271;28;20054;-63
2022/01/16 09:39:01;;;;;;;24.80;9.98;;;1.90;99.90;;;;;;10339430;28;20096;-63
2022/01/16 09:44:03;;;;;;;25.85;8.85;;;2.00;99.90;;;;;;10336483;28;20103;-63
2022/01/16 09:49:05;;;;;;;26.73;8.77;;;2.00;99.90;;;;;;10346943;28;20093;-63
2022/01/16 09:54:09;;;;;;;29.98;10.95;;;2.00;99.90;;;;;;10348184;28;20050;-63
2022/01/16 09:59:11;;;;;;;27.77;10.23;;;2.20;99.90;;;;;;10347578;28;20046;-63
2022/01/16 10:04:35;;;;;;;28.63;9.60;;;2.30;99.90;;;;;;10346539;28;20108;-63
2022/01/16 10:09:39;;;;;;;28.83;8.75;;;2.30;99.90;;;;;;10343685;28;20046;-63
2022/01/16 10:14:47;;;;;;;26.00;9.82;;;2.40;99.90;;;;;;10347304;28;20092;-63
2022/01/16 10:20:06;;;;;;;30.95;10.20;;;2.40;99.90;;;;;;10343255;28;20108;-63
2022/01/16 10:25:10;;;;;;;31.17;9.88;;;2.40;99.90;;;;;;10348019;28;20537;-62
2022/01/16 10:30:15;;;;;;;30.35;9.68;;;2.50;99.90;;;;;;10347809;28;21350;-63
2022/01/16 10:35:21;;;;;;;32.95;10.25;;;2.50;99.90;;;;;;10347703;28;20053;-63
2022/01/16 10:40:33;;;;;;;26.30;10.07;;;2.50;99.90;;;;;;10345476;28;20558;-63
2022/01/16 10:45:35;;;;;;;32.85;10.27;;;2.50;99.90;;;;;;10343852;28;20169;-63
2022/01/16 10:50:40;;;;;;;37.55;12.23;;;2.50;99.90;;;;;;10348627;28;20050;-62
2022/01/16 10:55:47;;;;;;;33.28;11.45;;;2.50;99.90;;;;;;10341558;28;20050;-63
2022/01/16 11:01:00;;;;;;;29.50;11.18;;;2.50;99.90;;;;;;10341430;28;20046;-64
2022/01/16 11:06:02;;;;;;;26.85;9.15;;;2.50;99.90;;;;;;10340197;28;20050;-64
2022/01/16 11:11:06;;;;;;;31.77;10.00;;;2.60;99.90;;;;;;10343159;28;20111;-63
2022/01/16 11:16:08;;;;;;;33.20;11.57;;;2.60;99.90;;;;;;10343814;28;20069;-63
2022/01/16 11:26:18;;;;;;;27.58;11.13;;;2.60;99.90;;;;;;10337931;28;20320;-63
2022/01/16 11:31:20;;;;;;;30.27;11.57;;;2.60;99.90;;;;;;10341650;28;20041;-63
2022/01/16 11:36:25;;;;;;;28.30;9.82;;;2.60;99.90;;;;;;10347573;28;20056;-63
2022/01/16 11:41:33;;;;;;;24.95;9.38;;;2.60;99.90;;;;;;10346313;28;20053;-63
2022/01/16 11:46:40;;;;;;;28.10;10.85;;;2.50;99.90;;;;;;10323171;28;20077;-62
2022/01/16 11:51:48;;;;;;;22.85;8.43;;;2.50;99.90;;;;;;10343704;28;20049;-62
2022/01/16 11:56:52;;;;;;;33.28;11.65;;;2.50;99.90;;;;;;10345042;28;20132;-63
2022/01/16 12:02:16;;;;;;;33.05;9.90;;;2.40;99.90;;;;;;10341236;28;20151;-62
2022/01/16 12:07:20;;;;;;;24.38;8.88;;;2.40;99.90;;;;;;10319705;28;20053;-63
2022/01/16 12:12:21;;;;;;;28.00;8.65;;;2.50;99.90;;;;;;10345787;28;20050;-63
2022/01/16 12:17:51;;;;;;;29.13;9.02;;;2.50;99.90;;;;;;10346282;28;20057;-63
2022/01/16 12:22:57;;;;;;;28.30;11.35;;;2.60;99.90;;;;;;10351010;28;20437;-63
2022/01/16 12:28:25;;;;;;;25.55;9.45;;;2.60;99.90;;;;;;10338314;28;20046;-62
2022/01/16 12:33:40;;;;;;;32.83;10.48;;;2.70;99.90;;;;;;10341816;28;20050;-62
2022/01/16 12:38:47;;;;;;;28.42;8.63;;;2.70;99.90;;;;;;10341220;28;20072;-63
2022/01/16 12:43:58;;;;;;;25.35;9.27;;;2.80;99.90;;;;;;10359073;28;20054;-62
2022/01/16 12:49:04;;;;;;;25.67;10.13;;;2.80;99.90;;;;;;10340482;28;20129;-62
2022/01/16 12:54:12;;;;;;;30.13;11.15;;;2.90;99.90;;;;;;10331869;28;20042;-62
2022/01/16 12:59:17;;;;;;;50.33;12.27;;;2.90;99.90;;;;;;10337921;28;20480;-62
2022/01/16 13:04:41;;;;;;;42.60;13.80;;;3.00;99.90;;;;;;10340484;28;20108;-62
2022/01/16 13:10:03;;;;;;;25.67;8.85;;;3.50;99.90;;;;;;10340186;28;20062;-62
2022/01/16 13:15:05;;;;;;;25.23;10.38;;;3.50;99.90;;;;;;10342065;28;20105;-62
2022/01/16 13:20:14;;;;;;;20.73;9.05;;;3.60;99.90;;;;;;10338838;28;20073;-62
2022/01/16 13:25:17;;;;;;;29.70;10.23;;;3.50;99.90;;;;;;10336721;28;20452;-62
2022/01/16 13:30:27;;;;;;;31.35;9.70;;;3.50;99.90;;;;;;10340800;28;20049;-62
2022/01/16 13:35:31;;;;;;;24.20;8.30;;;3.40;99.90;;;;;;10336579;28;20057;-62
2022/01/16 13:40:33;;;;;;;17.40;7.97;;;3.40;99.90;;;;;;10338662;28;20099;-62
2022/01/16 13:45:39;;;;;;;23.80;8.45;;;3.40;99.90;;;;;;10341940;28;20053;-62
2022/01/16 13:51:03;;;;;;;27.08;10.80;;;3.40;99.90;;;;;;10334246;28;20069;-61
2022/01/16 13:56:24;;;;;;;20.15;8.43;;;3.40;99.90;;;;;;10343413;28;20073;-62
2022/01/16 14:01:28;;;;;;;24.55;8.77;;;3.40;99.90;;;;;;10337710;28;20059;-61
2022/01/16 14:06:45;;;;;;;25.83;8.98;;;3.40;99.90;;;;;;10339240;28;20053;-62
2022/01/16 14:11:49;;;;;;;25.88;9.32;;;3.50;99.90;;;;;;10335896;28;20042;-62
2022/01/16 14:22:06;;;;;;;18.17;7.57;;;3.50;99.90;;;;;;10339041;28;20085;-62
2022/01/16 14:27:25;;;;;;;21.90;8.02;;;3.60;99.90;;;;;;10336009;28;20092;-62
2022/01/16 14:32:28;;;;;;;22.50;7.18;;;3.60;99.90;;;;;;10340437;28;20528;-61
2022/01/16 14:37:31;;;;;;;22.38;8.48;;;3.60;99.90;;;;;;10347102;28;20081;-63
2022/01/16 14:42:38;;;;;;;19.90;8.15;;;3.60;99.90;;;;;;10343564;28;20049;-62
2022/01/16 14:47:40;;;;;;;39.05;9.73;;;3.60;99.90;;;;;;10348303;28;20046;-62
2022/01/16 14:52:42;;;;;;;25.20;8.00;;;3.60;99.90;;;;;;10343307;28;20108;-62
2022/01/16 14:57:43;;;;;;;20.60;7.75;;;3.70;99.90;;;;;;10347023;28;20485;-62
2022/01/16 15:02:45;;;;;;;23.88;7.65;;;3.60;99.90;;;;;;10350807;28;20191;-62
2022/01/16 15:07:47;;;;;;;24.33;9.13;;;3.70;99.90;;;;;;10343807;28;20452;-62
2022/01/16 15:12:48;;;;;;;21.88;8.23;;;3.70;99.90;;;;;;10345092;28;20111;-62
2022/01/16 15:17:56;;;;;;;23.63;8.45;;;3.60;99.90;;;;;;10340453;28;20062;-61
2022/01/16 15:22:59;;;;;;;19.17;7.72;;;3.60;99.90;;;;;;10338415;28;20045;-60
2022/01/16 15:28:01;;;;;;;18.60;7.78;;;3.60;99.90;;;;;;10343591;28;20103;-61
2022/01/16 15:33:03;;;;;;;20.42;7.15;;;3.60;99.90;;;;;;10345310;28;20046;-60
2022/01/16 15:38:05;;;;;;;18.77;7.05;;;3.60;99.90;;;;;;10346375;28;20370;-62
2022/01/16 15:43:09;;;;;;;41.72;11.88;;;3.60;99.90;;;;;;10348036;28;20482;-62
2022/01/16 15:48:11;;;;;;;20.55;7.35;;;3.50;99.90;;;;;;10350199;28;20041;-62
2022/01/16 15:53:13;;;;;;;20.05;7.28;;;3.50;99.90;;;;;;10346730;28;20038;-62
2022/01/16 15:58:14;;;;;;;23.83;7.20;;;3.50;99.90;;;;;;10346905;28;20073;-62
2022/01/16 16:03:16;;;;;;;20.58;9.05;;;3.50;99.90;;;;;;10344702;28;20515;-60
2022/01/16 16:08:18;;;;;;;22.70;9.20;;;3.50;99.90;;;;;;10346544;28;20060;-59
2022/01/16 16:13:19;;;;;;;18.65;7.53;;;3.50;99.90;;;;;;10345770;28;20046;-59
2022/01/16 16:18:21;;;;;;;24.40;7.90;;;3.50;99.90;;;;;;10347890;28;20603;-59
2022/01/16 16:23:23;;;;;;;24.23;8.98;;;3.50;99.90;;;;;;10340616;28;20148;-60
2022/01/16 16:28:24;;;;;;;23.25;8.57;;;3.50;99.90;;;;;;10342612;28;20100;-61
2022/01/16 16:33:26;;;;;;;25.55;8.18;;;3.40;99.90;;;;;;10338351;28;20596;-60
2022/01/16 16:38:29;;;;;;;23.10;9.10;;;3.40;99.90;;;;;;10344368;28;20084;-62
2022/01/16 16:43:31;;;;;;;21.83;9.02;;;3.40;99.90;;;;;;10340971;28;20073;-60
2022/01/16 16:48:33;;;;;;;26.25;8.85;;;3.30;99.90;;;;;;10342023;28;20157;-61
2022/01/16 16:53:37;;;;;;;23.30;9.32;;;3.30;99.90;;;;;;10339447;28;20057;-60
2022/01/16 16:58:44;;;;;;;29.13;10.07;;;3.30;99.90;;;;;;10335943;28;20089;-60
2022/01/16 17:03:46;;;;;;;28.67;9.73;;;3.30;99.90;;;;;;10333060;28;20449;-61
2022/01/16 17:08:48;;;;;;;25.83;9.10;;;3.20;99.90;;;;;;10343117;28;20050;-60
2022/01/16 17:13:52;;;;;;;29.17;9.13;;;3.20;99.90;;;;;;10333536;28;20138;-61
2022/01/16 17:18:55;;;;;;;26.65;9.60;;;3.20;99.90;;;;;;10337488;28;20077;-61
2022/01/16 17:23:57;;;;;;;22.52;9.35;;;3.10;99.90;;;;;;10341622;28;20103;-61
2022/01/16 17:28:59;;;;;;;22.45;9.23;;;3.00;99.90;;;;;;10336804;28;20548;-61
2022/01/16 17:34:00;;;;;;;24.80;9.85;;;3.00;99.90;;;;;;10335822;28;20073;-58
2022/01/16 17:39:02;;;;;;;19.92;8.43;;;3.00;99.90;;;;;;10337915;28;20667;-60
2022/01/16 17:44:09;;;;;;;28.53;10.30;;;3.00;99.90;;;;;;10347915;28;20045;-60
2022/01/16 17:49:11;;;;;;;27.30;11.15;;;3.00;99.90;;;;;;10336264;28;20304;-59
2022/01/16 17:54:12;;;;;;;25.77;9.35;;;3.00;99.90;;;;;;10345252;28;20050;-61
2022/01/16 17:59:14;;;;;;;25.23;9.43;;;2.90;99.90;;;;;;10344138;28;20132;-61
2022/01/16 18:04:15;;;;;;;25.55;11.18;;;2.90;99.90;;;;;;10333492;28;20050;-62
2022/01/16 18:09:17;;;;;;;28.35;10.90;;;2.90;99.90;;;;;;10324561;28;20073;-60
2022/01/16 18:14:19;;;;;;;28.75;10.55;;;2.90;99.90;;;;;;10340267;28;20050;-61
2022/01/16 18:19:21;;;;;;;24.27;9.98;;;2.90;99.90;;;;;;10347863;28;20057;-59
2022/01/16 18:24:23;;;;;;;30.27;10.57;;;2.90;99.90;;;;;;10342701;28;20053;-60
2022/01/16 18:29:25;;;;;;;32.08;11.70;;;2.90;99.90;;;;;;10348099;28;20389;-59
2022/01/16 18:34:28;;;;;;;27.25;10.38;;;2.90;99.90;;;;;;10342590;28;20132;-60
2022/01/16 18:39:30;;;;;;;26.30;11.15;;;2.90;99.90;;;;;;10347556;28;20053;-60
2022/01/16 18:44:32;;;;;;;28.70;10.25;;;2.90;99.90;;;;;;10345379;28;20096;-59
2022/01/16 18:49:33;;;;;;;26.77;9.57;;;2.80;99.90;;;;;;10347970;28;20151;-61
2022/01/16 18:54:35;;;;;;;27.38;9.85;;;2.80;99.90;;;;;;10345555;28;20488;-61
2022/01/16 18:59:38;;;;;;;30.55;10.73;;;2.90;99.90;;;;;;10343436;28;20144;-61
2022/01/16 19:04:45;;;;;;;25.52;11.02;;;2.90;99.90;;;;;;10343807;28;20144;-61
2022/01/16 19:09:47;;;;;;;31.92;11.13;;;2.90;99.90;;;;;;10342071;28;20042;-60
2022/01/16 19:14:49;;;;;;;28.67;10.68;;;2.90;99.90;;;;;;10348947;28;20048;-61
2022/01/16 19:19:52;;;;;;;25.63;9.52;;;2.90;99.90;;;;;;10347567;28;20436;-61
2022/01/16 19:24:54;;;;;;;25.27;10.52;;;2.90;99.90;;;;;;10343683;28;20077;-61
2022/01/16 19:29:55;;;;;;;26.35;10.30;;;3.00;99.90;;;;;;10342548;28;20115;-61
2022/01/16 19:34:57;;;;;;;27.15;9.68;;;3.00;99.90;;;;;;10337728;28;20070;-61
2022/01/16 19:40:00;;;;;;;24.00;9.45;;;3.00;99.90;;;;;;10340223;28;20057;-60
2022/01/16 19:45:03;;;;;;;24.63;8.82;;;3.10;99.90;;;;;;10348924;28;20058;-59
2022/01/16 19:50:06;;;;;;;18.70;7.20;;;3.10;99.90;;;;;;10341178;28;20045;-59
2022/01/16 19:55:08;;;;;;;23.70;8.98;;;3.10;99.90;;;;;;10344250;28;20081;-62
2022/01/16 20:00:12;;;;;;;20.77;9.23;;;3.10;99.90;;;;;;10342434;28;20108;-60
2022/01/16 20:05:14;;;;;;;23.25;9.25;;;3.10;99.90;;;;;;10346047;28;20097;-59
2022/01/16 20:10:16;;;;;;;24.27;9.55;;;3.20;99.90;;;;;;10346740;28;20092;-60
2022/01/16 20:15:20;;;;;;;20.10;8.27;;;3.20;99.90;;;;;;10342478;28;20120;-59
2022/01/16 20:20:25;;;;;;;18.17;7.72;;;3.30;99.90;;;;;;10345138;28;20042;-60
2022/01/16 20:25:28;;;;;;;19.20;8.25;;;3.20;99.90;;;;;;10341048;28;20085;-60
2022/01/16 20:30:30;;;;;;;19.38;8.82;;;3.20;99.90;;;;;;10342042;28;20049;-59
2022/01/16 20:35:32;;;;;;;21.45;8.68;;;3.20;99.90;;;;;;10340968;28;20050;-59
2022/01/16 20:40:37;;;;;;;16.98;8.07;;;3.30;99.90;;;;;;10341910;28;20424;-60
2022/01/16 20:45:39;;;;;;;18.88;7.40;;;3.30;99.90;;;;;;10343104;28;20065;-60
2022/01/16 20:50:41;;;;;;;19.45;7.68;;;3.40;99.90;;;;;;10347602;28;20080;-60
2022/01/16 20:55:43;;;;;;;14.52;6.20;;;3.30;99.90;;;;;;10344484;28;20038;-60
2022/01/16 21:00:45;;;;;;;21.83;8.45;;;3.40;99.90;;;;;;10339880;28;20113;-61
2022/01/16 21:05:47;;;;;;;16.63;6.97;;;3.40;99.90;;;;;;10344174;28;20471;-60
2022/01/16 21:10:54;;;;;;;18.58;7.40;;;3.40;99.90;;;;;;10346216;28;20136;-60
2022/01/16 21:15:56;;;;;;;22.13;9.00;;;3.40;99.90;;;;;;10342067;28;20065;-61
2022/01/16 21:20:58;;;;;;;19.50;8.07;;;3.40;99.90;;;;;;10342387;28;20046;-60
2022/01/16 21:26:00;;;;;;;19.58;9.15;;;3.40;99.90;;;;;;10334225;28;20108;-63
2022/01/16 21:31:02;;;;;;;17.33;8.02;;;3.50;99.90;;;;;;10347972;28;20054;-61
2022/01/16 21:36:04;;;;;;;16.70;7.50;;;3.50;99.90;;;;;;10324992;28;20117;-59
2022/01/16 21:41:07;;;;;;;16.63;7.75;;;3.50;99.90;;;;;;10342769;28;20054;-60
2022/01/16 21:46:09;;;;;;;19.63;9.02;;;3.50;99.90;;;;;;10342021;28;20049;-62
2022/01/16 21:51:12;;;;;;;18.25;8.07;;;3.40;99.90;;;;;;10347321;28;20056;-61
2022/01/16 21:56:13;;;;;;;15.40;7.07;;;3.40;99.90;;;;;;10343099;28;20054;-60
2022/01/16 22:01:26;;;;;;;17.30;7.25;;;3.40;99.90;;;;;;10349302;28;20050;-60
2022/01/16 22:06:28;;;;;;;18.13;8.20;;;3.40;99.90;;;;;;10349296;28;20058;-60
2022/01/16 22:11:32;;;;;;;15.55;7.68;;;3.40;99.90;;;;;;10347823;28;20456;-60
2022/01/16 22:16:34;;;;;;;17.75;7.80;;;3.40;99.90;;;;;;10350669;28;20196;-60
2022/01/16 22:21:35;;;;;;;17.67;7.22;;;3.40;99.90;;;;;;10350673;28;20085;-60
2022/01/16 22:26:37;;;;;;;20.10;8.65;;;3.40;99.90;;;;;;10346947;28;20528;-59
2022/01/16 22:31:38;;;;;;;16.25;7.53;;;3.40;99.90;;;;;;10348018;28;20049;-59
2022/01/16 22:36:41;;;;;;;16.15;6.72;;;3.40;99.90;;;;;;10346584;28;20050;-60
2022/01/16 22:41:43;;;;;;;16.40;6.80;;;3.40;99.90;;;;;;10345793;28;20046;-61
2022/01/16 22:46:46;;;;;;;16.80;7.43;;;3.40;99.90;;;;;;10344066;28;20115;-60
2022/01/16 22:51:49;;;;;;;13.13;6.30;;;3.40;99.90;;;;;;10350179;28;20584;-61
2022/01/16 22:56:53;;;;;;;16.98;7.35;;;3.50;99.90;;;;;;10348964;28;20550;-61
2022/01/16 23:01:56;;;;;;;14.52;6.65;;;3.40;99.90;;;;;;10347454;28;20061;-60
2022/01/16 23:06:58;;;;;;;12.70;6.50;;;3.50;99.90;;;;;;10348197;28;20076;-61
2022/01/16 23:12:00;;;;;;;16.20;6.32;;;3.50;99.90;;;;;;10342642;28;20073;-58
2022/01/16 23:17:04;;;;;;;15.00;5.78;;;3.50;99.90;;;;;;10351164;28;20057;-59
2022/01/16 23:22:06;;;;;;;15.52;6.45;;;3.50;99.90;;;;;;10342789;28;20077;-59
2022/01/16 23:27:11;;;;;;;10.65;5.45;;;3.50;99.90;;;;;;10346718;28;20050;-59
2022/01/16 23:32:13;;;;;;;12.20;5.82;;;3.50;99.90;;;;;;10342756;28;20070;-59
2022/01/16 23:37:17;;;;;;;10.45;4.97;;;3.50;99.90;;;;;;10338110;28;20061;-59
2022/01/16 23:42:19;;;;;;;10.95;5.22;;;3.40;99.90;;;;;;10343365;28;20045;-59
2022/01/16 23:47:21;;;;;;;8.30;4.30;;;3.40;99.90;;;;;;10344925;28;20042;-59
2022/01/16 23:52:23;;;;;;;14.52;6.25;;;3.50;99.90;;;;;;10347133;28;20050;-60
2022/01/16 23:57:25;;;;;;;12.05;4.90;;;3.50;99.90;;;;;;10346858;28;20128;-59
